sensor_id;sensor_type;location;lat;lon;timestamp;P1;durP1;ratioP1;P2;durP2;ratioP2
15952;SDS011;8075;47.766;8.846;2022-10-16T04:00:44;2.67;;;1.58;;
15952;SDS011;8075;47.766;8.846;2022-10-16T04:03:11;2.60;;;1.33;;
15952;SDS011;8075;47.766;8.846;2022-10-16T04:05:37;1.97;;;1.37;;
15952;SDS011;8075;47.766;8.846;2022-10-16T04:08:03;3.55;;;1.70;;
15952;SDS011;8075;47.766;8.846;2022-10-16T04:10:29;2.63;;;1.45;;
15952;SDS011;8075;47.766;8.846;2022-10-16T04:12:55;3.55;;;1.30;;
15952;SDS011;8075;47.766;8.846;2022-10-16T04:15:24;2.30;;;1.13;;
15952;SDS011;8075;47.766;8.846;2022-10-16T04:17:51;3.70;;;1.20;;
15952;SDS011;8075;47.766;8.846;2022-10-16T04:20:17;2.88;;;1.50;;
15952;SDS011;8075;47.766;8.846;2022-10-16T04:22:43;2.58;;;1.33;;
15952;SDS011;8075;47.766;8.846;2022-10-16T04:25:09;3.40;;;1.20;;
15952;SDS011;8075;47.766;8.846;2022-10-16T04:27:36;3.67;;;1.20;;
15952;SDS011;8075;47.766;8.846;2022-10-16T04:30:03;2.38;;;1.40;;
15952;SDS011;8075;47.766;8.846;2022-10-16T04:32:29;3.80;;;1.40;;
15952;SDS011;8075;47.766;8.846;2022-10-16T04:34:55;3.10;;;1.30;;
15952;SDS011;8075;47.766;8.846;2022-10-16T04:37:25;2.77;;;1.50;;
15952;SDS011;8075;47.766;8.846;2022-10-16T04:39:51;1.40;;;1.30;;
15952;SDS011;8075;47.766;8.846;2022-10-16T04:42:18;2.13;;;1.35;;
15952;SDS011;8075;47.766;8.846;2022-10-16T04:44:44;3.20;;;1.45;;
15952;SDS011;8075;47.766;8.846;2022-10-16T04:47:10;3.65;;;1.40;;
15952;SDS011;8075;47.766;8.846;2022-10-16T04:49:36;5.07;;;1.48;;
15952;SDS011;8075;47.766;8.846;2022-10-16T04:52:02;2.95;;;1.30;;
15952;SDS011;8075;47.766;8.846;2022-10-16T04:54:28;2.90;;;1.50;;
15952;SDS011;8075;47.766;8.846;2022-10-16T04:56:54;6.10;;;1.45;;
15952;SDS011;8075;47.766;8.846;2022-10-16T04:59:21;2.95;;;1.48;;
15952;SDS011;8075;47.766;8.846;2022-10-16T05:01:47;3.15;;;1.50;;
15952;SDS011;8075;47.766;8.846;2022-10-16T05:04:13;2.97;;;1.67;;
15952;SDS011;8075;47.766;8.846;2022-10-16T05:06:40;2.03;;;1.47;;
15952;SDS011;8075;47.766;8.846;2022-10-16T05:09:06;3.10;;;1.90;;
15952;SDS011;8075;47.766;8.846;2022-10-16T05:11:32;3.50;;;1.70;;
15952;SDS011;8075;47.766;8.846;2022-10-16T05:13:58;2.83;;;1.35;;
15952;SDS011;8075;47.766;8.846;2022-10-16T05:16:25;6.73;;;1.60;;
15952;SDS011;8075;47.766;8.846;2022-10-16T05:18:51;2.10;;;1.50;;
15952;SDS011;8075;47.766;8.846;2022-10-16T05:21:17;2.97;;;1.60;;
15952;SDS011;8075;47.766;8.846;2022-10-16T05:23:43;2.83;;;1.65;;
15952;SDS011;8075;47.766;8.846;2022-10-16T05:26:09;2.63;;;1.60;;
15952;SDS011;8075;47.766;8.846;2022-10-16T05:28:35;2.85;;;1.50;;
15952;SDS011;8075;47.766;8.846;2022-10-16T05:31:08;3.97;;;1.70;;
15952;SDS011;8075;47.766;8.846;2022-10-16T05:33:34;2.15;;;1.70;;
15952;SDS011;8075;47.766;8.846;2022-10-16T05:36:01;4.10;;;1.65;;
15952;SDS011;8075;47.766;8.846;2022-10-16T05:38:28;2.77;;;1.77;;
15952;SDS011;8075;47.766;8.846;2022-10-16T05:40:54;5.82;;;1.73;;
15952;SDS011;8075;47.766;8.846;2022-10-16T05:43:21;3.40;;;1.70;;
15952;SDS011;8075;47.766;8.846;2022-10-16T05:48:45;2.90;;;1.23;;
15952;SDS011;8075;47.766;8.846;2022-10-16T05:51:12;4.57;;;1.30;;
15952;SDS011;8075;47.766;8.846;2022-10-16T05:53:39;3.42;;;1.15;;
15952;SDS011;8075;47.766;8.846;2022-10-16T05:56:06;7.18;;;1.55;;
15952;SDS011;8075;47.766;8.846;2022-10-16T05:58:33;4.15;;;1.30;;
15952;SDS011;8075;47.766;8.846;2022-10-16T06:01:04;2.80;;;1.20;;
15952;SDS011;8075;47.766;8.846;2022-10-16T06:03:30;2.72;;;1.20;;
15952;SDS011;8075;47.766;8.846;2022-10-16T06:05:56;2.75;;;1.30;;
15952;SDS011;8075;47.766;8.846;2022-10-16T06:08:22;2.60;;;1.10;;
15952;SDS011;8075;47.766;8.846;2022-10-16T06:10:49;2.75;;;1.13;;
15952;SDS011;8075;47.766;8.846;2022-10-16T06:13:25;4.45;;;1.10;;
15952;SDS011;8075;47.766;8.846;2022-10-16T06:15:56;4.57;;;1.35;;
15952;SDS011;8075;47.766;8.846;2022-10-16T06:18:22;2.58;;;1.23;;
15952;SDS011;8075;47.766;8.846;2022-10-16T06:20:48;2.38;;;1.20;;
15952;SDS011;8075;47.766;8.846;2022-10-16T06:23:14;2.35;;;1.20;;
15952;SDS011;8075;47.766;8.846;2022-10-16T06:25:40;2.70;;;1.15;;
15952;SDS011;8075;47.766;8.846;2022-10-16T06:28:06;2.75;;;1.58;;
15952;SDS011;8075;47.766;8.846;2022-10-16T06:30:32;4.82;;;1.67;;
15952;SDS011;8075;47.766;8.846;2022-10-16T06:32:58;1.70;;;1.40;;
15952;SDS011;8075;47.766;8.846;2022-10-16T06:35:24;3.20;;;1.52;;
15952;SDS011;8075;47.766;8.846;2022-10-16T06:37:50;4.32;;;1.70;;
15952;SDS011;8075;47.766;8.846;2022-10-16T06:40:16;4.57;;;1.67;;
15952;SDS011;8075;47.766;8.846;2022-10-16T06:42:42;3.00;;;1.40;;
15952;SDS011;8075;47.766;8.846;2022-10-16T06:45:08;4.15;;;1.63;;
15952;SDS011;8075;47.766;8.846;2022-10-16T06:47:34;2.55;;;2.00;;
15952;SDS011;8075;47.766;8.846;2022-10-16T06:50:00;4.05;;;2.22;;
15952;SDS011;8075;47.766;8.846;2022-10-16T06:52:29;2.97;;;2.40;;
15952;SDS011;8075;47.766;8.846;2022-10-16T06:54:55;5.72;;;2.20;;
15952;SDS011;8075;47.766;8.846;2022-10-16T06:57:21;3.00;;;1.90;;
15952;SDS011;8075;47.766;8.846;2022-10-16T06:59:47;4.57;;;1.90;;
15952;SDS011;8075;47.766;8.846;2022-10-16T07:02:13;2.90;;;1.70;;
15952;SDS011;8075;47.766;8.846;2022-10-16T07:04:39;3.17;;;1.80;;
15952;SDS011;8075;47.766;8.846;2022-10-16T07:07:05;2.10;;;1.65;;
15952;SDS011;8075;47.766;8.846;2022-10-16T07:09:31;7.03;;;3.05;;
15952;SDS011;8075;47.766;8.846;2022-10-16T07:11:57;4.00;;;2.20;;
15952;SDS011;8075;47.766;8.846;2022-10-16T07:14:23;5.03;;;1.93;;
15952;SDS011;8075;47.766;8.846;2022-10-16T07:16:48;2.47;;;1.80;;
15952;SDS011;8075;47.766;8.846;2022-10-16T07:19:14;3.92;;;2.03;;
15952;SDS011;8075;47.766;8.846;2022-10-16T07:21:42;5.05;;;1.88;;
15952;SDS011;8075;47.766;8.846;2022-10-16T07:24:15;3.45;;;2.10;;
15952;SDS011;8075;47.766;8.846;2022-10-16T07:26:42;2.35;;;1.60;;
15952;SDS011;8075;47.766;8.846;2022-10-16T07:29:12;5.43;;;2.50;;
15952;SDS011;8075;47.766;8.846;2022-10-16T07:31:39;2.33;;;2.13;;
15952;SDS011;8075;47.766;8.846;2022-10-16T07:34:05;5.45;;;2.33;;
15952;SDS011;8075;47.766;8.846;2022-10-16T07:36:31;2.67;;;2.03;;
15952;SDS011;8075;47.766;8.846;2022-10-16T07:38:57;3.88;;;2.30;;
15952;SDS011;8075;47.766;8.846;2022-10-16T07:41:23;6.20;;;3.45;;
15952;SDS011;8075;47.766;8.846;2022-10-16T07:43:50;5.20;;;3.53;;
15952;SDS011;8075;47.766;8.846;2022-10-16T07:46:16;4.63;;;4.17;;
15952;SDS011;8075;47.766;8.846;2022-10-16T07:48:42;4.10;;;3.70;;
15952;SDS011;8075;47.766;8.846;2022-10-16T07:51:11;4.80;;;3.45;;
15952;SDS011;8075;47.766;8.846;2022-10-16T07:53:37;4.13;;;3.00;;
15952;SDS011;8075;47.766;8.846;2022-10-16T07:56:04;2.83;;;2.63;;
15952;SDS011;8075;47.766;8.846;2022-10-16T07:58:31;2.88;;;2.63;;
15952;SDS011;8075;47.766;8.846;2022-10-16T08:00:57;3.97;;;2.88;;
15952;SDS011;8075;47.766;8.846;2022-10-16T08:03:23;2.95;;;2.75;;
15952;SDS011;8075;47.766;8.846;2022-10-16T08:05:50;3.97;;;2.80;;
15952;SDS011;8075;47.766;8.846;2022-10-16T08:08:16;3.33;;;3.00;;
15952;SDS011;8075;47.766;8.846;2022-10-16T08:10:42;3.22;;;2.78;;
15952;SDS011;8075;47.766;8.846;2022-10-16T08:13:08;4.28;;;3.25;;
15952;SDS011;8075;47.766;8.846;2022-10-16T08:15:34;6.68;;;3.30;;
15952;SDS011;8075;47.766;8.846;2022-10-16T08:18:02;3.60;;;3.15;;
15952;SDS011;8075;47.766;8.846;2022-10-16T08:20:28;3.80;;;3.50;;
15952;SDS011;8075;47.766;8.846;2022-10-16T08:22:55;4.68;;;3.70;;
15952;SDS011;8075;47.766;8.846;2022-10-16T08:25:21;4.45;;;4.03;;
15952;SDS011;8075;47.766;8.846;2022-10-16T08:27:50;3.58;;;3.20;;
15952;SDS011;8075;47.766;8.846;2022-10-16T08:30:17;6.82;;;3.78;;
15952;SDS011;8075;47.766;8.846;2022-10-16T08:32:43;6.03;;;3.85;;
15952;SDS011;8075;47.766;8.846;2022-10-16T08:35:10;4.80;;;4.35;;
15952;SDS011;8075;47.766;8.846;2022-10-16T08:37:36;5.47;;;4.97;;
15952;SDS011;8075;47.766;8.846;2022-10-16T08:40:02;6.57;;;5.55;;
15952;SDS011;8075;47.766;8.846;2022-10-16T08:45:21;5.80;;;5.30;;
15952;SDS011;8075;47.766;8.846;2022-10-16T08:50:44;5.43;;;4.60;;
15952;SDS011;8075;47.766;8.846;2022-10-16T08:53:15;5.15;;;4.65;;
15952;SDS011;8075;47.766;8.846;2022-10-16T08:55:42;4.88;;;4.47;;
15952;SDS011;8075;47.766;8.846;2022-10-16T08:58:13;10.57;;;4.00;;
15952;SDS011;8075;47.766;8.846;2022-10-16T09:00:40;5.93;;;4.30;;
15952;SDS011;8075;47.766;8.846;2022-10-16T09:08:40;6.75;;;4.35;;
15952;SDS011;8075;47.766;8.846;2022-10-16T09:13:38;6.33;;;3.30;;
15952;SDS011;8075;47.766;8.846;2022-10-16T09:21:11;4.03;;;2.70;;
15952;SDS011;8075;47.766;8.846;2022-10-16T09:23:39;5.55;;;2.80;;
15952;SDS011;8075;47.766;8.846;2022-10-16T09:26:08;4.33;;;2.97;;
15952;SDS011;8075;47.766;8.846;2022-10-16T09:28:35;5.10;;;2.92;;
15952;SDS011;8075;47.766;8.846;2022-10-16T09:31:01;7.03;;;2.70;;
15952;SDS011;8075;47.766;8.846;2022-10-16T09:33:33;3.00;;;2.60;;
15952;SDS011;8075;47.766;8.846;2022-10-16T09:36:00;3.17;;;2.28;;
15952;SDS011;8075;47.766;8.846;2022-10-16T09:38:30;2.90;;;2.15;;
15952;SDS011;8075;47.766;8.846;2022-10-16T09:40:57;5.13;;;2.63;;
15952;SDS011;8075;47.766;8.846;2022-10-16T09:45:57;3.17;;;2.38;;
15952;SDS011;8075;47.766;8.846;2022-10-16T09:48:23;3.85;;;2.40;;
15952;SDS011;8075;47.766;8.846;2022-10-16T09:50:57;3.35;;;1.90;;
15952;SDS011;8075;47.766;8.846;2022-10-16T09:53:24;3.42;;;2.17;;
15952;SDS011;8075;47.766;8.846;2022-10-16T09:55:52;2.40;;;2.20;;
15952;SDS011;8075;47.766;8.846;2022-10-16T09:58:21;3.05;;;2.25;;
15952;SDS011;8075;47.766;8.846;2022-10-16T10:00:51;2.53;;;2.28;;
15952;SDS011;8075;47.766;8.846;2022-10-16T10:03:35;2.87;;;2.43;;
15952;SDS011;8075;47.766;8.846;2022-10-16T10:06:07;4.05;;;2.72;;
15952;SDS011;8075;47.766;8.846;2022-10-16T10:08:41;3.28;;;2.53;;
15952;SDS011;8075;47.766;8.846;2022-10-16T10:11:07;5.05;;;2.50;;
15952;SDS011;8075;47.766;8.846;2022-10-16T10:13:33;3.30;;;2.60;;
15952;SDS011;8075;47.766;8.846;2022-10-16T10:15:59;6.35;;;2.70;;
15952;SDS011;8075;47.766;8.846;2022-10-16T10:18:25;3.97;;;2.80;;
15952;SDS011;8075;47.766;8.846;2022-10-16T10:20:58;5.00;;;2.88;;
15952;SDS011;8075;47.766;8.846;2022-10-16T10:23:25;5.78;;;2.65;;
15952;SDS011;8075;47.766;8.846;2022-10-16T10:28:57;3.25;;;2.40;;
15952;SDS011;8075;47.766;8.846;2022-10-16T10:36:40;2.30;;;2.10;;
15952;SDS011;8075;47.766;8.846;2022-10-16T10:39:08;2.88;;;1.88;;
15952;SDS011;8075;47.766;8.846;2022-10-16T10:47:11;3.88;;;2.05;;
15952;SDS011;8075;47.766;8.846;2022-10-16T10:57:21;3.55;;;1.58;;
15952;SDS011;8075;47.766;8.846;2022-10-16T10:59:56;5.00;;;2.03;;
15952;SDS011;8075;47.766;8.846;2022-10-16T11:07:38;5.00;;;1.65;;
15952;SDS011;8075;47.766;8.846;2022-10-16T11:10:12;3.15;;;1.40;;
15952;SDS011;8075;47.766;8.846;2022-10-16T11:12:40;3.45;;;1.50;;
15952;SDS011;8075;47.766;8.846;2022-10-16T11:15:12;3.35;;;1.50;;
15952;SDS011;8075;47.766;8.846;2022-10-16T11:17:41;2.88;;;1.60;;
15952;SDS011;8075;47.766;8.846;2022-10-16T11:20:13;2.53;;;1.20;;
15952;SDS011;8075;47.766;8.846;2022-10-16T11:22:43;2.20;;;1.20;;
15952;SDS011;8075;47.766;8.846;2022-10-16T11:30:14;2.50;;;1.13;;
15952;SDS011;8075;47.766;8.846;2022-10-16T11:32:53;2.20;;;1.38;;
15952;SDS011;8075;47.766;8.846;2022-10-16T11:35:24;4.20;;;1.10;;
15952;SDS011;8075;47.766;8.846;2022-10-16T11:37:51;4.82;;;1.50;;
15952;SDS011;8075;47.766;8.846;2022-10-16T11:40:25;1.67;;;1.40;;
15952;SDS011;8075;47.766;8.846;2022-10-16T11:42:55;5.47;;;1.90;;
15952;SDS011;8075;47.766;8.846;2022-10-16T11:45:37;2.13;;;1.60;;
15952;SDS011;8075;47.766;8.846;2022-10-16T11:48:51;3.38;;;1.35;;
15952;SDS011;8075;47.766;8.846;2022-10-16T11:55:58;2.67;;;1.47;;
15952;SDS011;8075;47.766;8.846;2022-10-16T11:58:36;1.50;;;1.40;;
15952;SDS011;8075;47.766;8.846;2022-10-16T12:06:22;2.28;;;1.33;;
15952;SDS011;8075;47.766;8.846;2022-10-16T12:08:50;3.08;;;1.35;;
15952;SDS011;8075;47.766;8.846;2022-10-16T12:11:24;2.23;;;1.20;;
15952;SDS011;8075;47.766;8.846;2022-10-16T12:16:50;2.40;;;1.00;;
15952;SDS011;8075;47.766;8.846;2022-10-16T12:19:17;2.50;;;1.20;;
15952;SDS011;8075;47.766;8.846;2022-10-16T12:21:43;3.33;;;1.13;;
15952;SDS011;8075;47.766;8.846;2022-10-16T12:24:20;2.50;;;1.00;;
15952;SDS011;8075;47.766;8.846;2022-10-16T12:26:47;3.97;;;1.20;;
15952;SDS011;8075;47.766;8.846;2022-10-16T12:29:17;1.55;;;1.20;;
15952;SDS011;8075;47.766;8.846;2022-10-16T12:31:48;4.10;;;1.20;;
15952;SDS011;8075;47.766;8.846;2022-10-16T12:34:26;2.20;;;1.08;;
15952;SDS011;8075;47.766;8.846;2022-10-16T12:36:53;3.03;;;1.20;;
15952;SDS011;8075;47.766;8.846;2022-10-16T12:39:27;2.72;;;1.30;;
15952;SDS011;8075;47.766;8.846;2022-10-16T12:42:03;2.10;;;1.17;;
15952;SDS011;8075;47.766;8.846;2022-10-16T12:44:34;3.10;;;1.15;;
15952;SDS011;8075;47.766;8.846;2022-10-16T12:47:00;1.55;;;1.20;;
15952;SDS011;8075;47.766;8.846;2022-10-16T12:51:55;2.90;;;1.20;;
15952;SDS011;8075;47.766;8.846;2022-10-16T12:57:03;1.23;;;1.13;;
15952;SDS011;8075;47.766;8.846;2022-10-16T12:59:50;0.95;;;0.90;;
15952;SDS011;8075;47.766;8.846;2022-10-16T13:04:53;1.15;;;0.80;;
15952;SDS011;8075;47.766;8.846;2022-10-16T13:17:45;3.53;;;1.30;;
15952;SDS011;8075;47.766;8.846;2022-10-16T13:30:12;2.40;;;1.33;;
15952;SDS011;8075;47.766;8.846;2022-10-16T13:32:38;3.45;;;1.20;;
15952;SDS011;8075;47.766;8.846;2022-10-16T13:35:15;2.72;;;1.30;;
15952;SDS011;8075;47.766;8.846;2022-10-16T13:37:43;3.30;;;1.30;;
15952;SDS011;8075;47.766;8.846;2022-10-16T13:40:20;2.65;;;1.40;;
15952;SDS011;8075;47.766;8.846;2022-10-16T13:42:47;2.23;;;1.17;;
15952;SDS011;8075;47.766;8.846;2022-10-16T13:45:23;2.72;;;1.35;;
15952;SDS011;8075;47.766;8.846;2022-10-16T13:48:00;2.83;;;1.23;;
15952;SDS011;8075;47.766;8.846;2022-10-16T13:50:26;3.00;;;1.23;;
15952;SDS011;8075;47.766;8.846;2022-10-16T13:53:02;2.28;;;1.25;;
15952;SDS011;8075;47.766;8.846;2022-10-16T13:55:28;4.47;;;1.52;;
15952;SDS011;8075;47.766;8.846;2022-10-16T13:58:04;3.95;;;1.08;;
15952;SDS011;8075;47.766;8.846;2022-10-16T14:00:29;4.87;;;1.00;;
15952;SDS011;8075;47.766;8.846;2022-10-16T14:03:03;1.20;;;1.10;;
15952;SDS011;8075;47.766;8.846;2022-10-16T14:05:30;1.85;;;1.40;;
15952;SDS011;8075;47.766;8.846;2022-10-16T14:07:56;2.80;;;1.50;;
15952;SDS011;8075;47.766;8.846;2022-10-16T14:10:25;2.78;;;1.50;;
15952;SDS011;8075;47.766;8.846;2022-10-16T14:12:55;2.90;;;1.48;;
15952;SDS011;8075;47.766;8.846;2022-10-16T14:15:21;1.50;;;1.40;;
15952;SDS011;8075;47.766;8.846;2022-10-16T14:17:49;1.70;;;1.23;;
15952;SDS011;8075;47.766;8.846;2022-10-16T14:20:16;1.27;;;1.00;;
15952;SDS011;8075;47.766;8.846;2022-10-16T14:22:42;1.95;;;1.15;;
15952;SDS011;8075;47.766;8.846;2022-10-16T14:28:14;1.92;;;1.50;;
15952;SDS011;8075;47.766;8.846;2022-10-16T14:33:23;1.80;;;1.25;;
15952;SDS011;8075;47.766;8.846;2022-10-16T14:35:59;1.63;;;1.02;;
15952;SDS011;8075;47.766;8.846;2022-10-16T14:38:25;1.23;;;1.10;;
15952;SDS011;8075;47.766;8.846;2022-10-16T14:40:51;1.58;;;1.08;;
15952;SDS011;8075;47.766;8.846;2022-10-16T14:46:16;2.63;;;1.40;;
15952;SDS011;8075;47.766;8.846;2022-10-16T14:48:43;1.98;;;0.90;;
15952;SDS011;8075;47.766;8.846;2022-10-16T14:51:13;1.65;;;1.20;;
15952;SDS011;8075;47.766;8.846;2022-10-16T14:53:39;1.63;;;0.82;;
15952;SDS011;8075;47.766;8.846;2022-10-16T14:56:07;1.65;;;0.80;;
15952;SDS011;8075;47.766;8.846;2022-10-16T14:58:33;4.35;;;1.27;;
15952;SDS011;8075;47.766;8.846;2022-10-16T15:01:00;3.25;;;1.27;;
15952;SDS011;8075;47.766;8.846;2022-10-16T15:03:26;3.33;;;1.00;;
15952;SDS011;8075;47.766;8.846;2022-10-16T15:05:52;1.23;;;1.00;;
15952;SDS011;8075;47.766;8.846;2022-10-16T15:08:18;4.00;;;1.10;;
15952;SDS011;8075;47.766;8.846;2022-10-16T15:10:44;3.80;;;1.30;;
15952;SDS011;8075;47.766;8.846;2022-10-16T15:13:13;2.85;;;1.10;;
15952;SDS011;8075;47.766;8.846;2022-10-16T15:15:43;2.90;;;1.20;;
15952;SDS011;8075;47.766;8.846;2022-10-16T15:18:10;3.30;;;1.40;;
15952;SDS011;8075;47.766;8.846;2022-10-16T15:20:37;3.28;;;1.00;;
15952;SDS011;8075;47.766;8.846;2022-10-16T15:23:04;2.35;;;0.90;;
15952;SDS011;8075;47.766;8.846;2022-10-16T15:25:36;2.28;;;1.05;;
15952;SDS011;8075;47.766;8.846;2022-10-16T15:28:04;1.15;;;0.95;;
15952;SDS011;8075;47.766;8.846;2022-10-16T15:30:32;4.38;;;1.10;;
15952;SDS011;8075;47.766;8.846;2022-10-16T15:32:58;6.60;;;1.50;;
15952;SDS011;8075;47.766;8.846;2022-10-16T15:35:24;3.42;;;1.17;;
15952;SDS011;8075;47.766;8.846;2022-10-16T15:37:50;4.07;;;1.40;;
15952;SDS011;8075;47.766;8.846;2022-10-16T15:40:17;3.45;;;1.20;;
15952;SDS011;8075;47.766;8.846;2022-10-16T15:42:43;4.03;;;1.33;;
15952;SDS011;8075;47.766;8.846;2022-10-16T15:45:10;3.00;;;1.10;;
15952;SDS011;8075;47.766;8.846;2022-10-16T15:47:36;2.85;;;1.40;;
15952;SDS011;8075;47.766;8.846;2022-10-16T15:50:03;2.30;;;1.20;;
15952;SDS011;8075;47.766;8.846;2022-10-16T15:52:29;3.90;;;1.50;;
15952;SDS011;8075;47.766;8.846;2022-10-16T15:54:56;1.90;;;1.30;;
15952;SDS011;8075;47.766;8.846;2022-10-16T15:57:22;2.72;;;1.50;;
15952;SDS011;8075;47.766;8.846;2022-10-16T15:59:49;3.43;;;1.40;;
15952;SDS011;8075;47.766;8.846;2022-10-16T16:02:15;3.65;;;1.73;;
15952;SDS011;8075;47.766;8.846;2022-10-16T16:04:41;4.32;;;1.60;;
15952;SDS011;8075;47.766;8.846;2022-10-16T16:07:07;3.33;;;1.42;;
15952;SDS011;8075;47.766;8.846;2022-10-16T16:09:33;4.60;;;1.60;;
15952;SDS011;8075;47.766;8.846;2022-10-16T16:11:59;3.88;;;1.40;;
15952;SDS011;8075;47.766;8.846;2022-10-16T16:14:26;5.13;;;1.55;;
15952;SDS011;8075;47.766;8.846;2022-10-16T16:16:55;5.50;;;1.50;;
15952;SDS011;8075;47.766;8.846;2022-10-16T16:19:21;5.60;;;1.55;;
15952;SDS011;8075;47.766;8.846;2022-10-16T16:21:48;6.68;;;1.40;;
15952;SDS011;8075;47.766;8.846;2022-10-16T16:24:14;4.60;;;1.65;;
15952;SDS011;8075;47.766;8.846;2022-10-16T16:26:40;6.03;;;1.67;;
15952;SDS011;8075;47.766;8.846;2022-10-16T16:29:08;3.10;;;1.80;;
15952;SDS011;8075;47.766;8.846;2022-10-16T16:31:35;2.78;;;2.10;;
15952;SDS011;8075;47.766;8.846;2022-10-16T16:34:01;7.97;;;2.40;;
15952;SDS011;8075;47.766;8.846;2022-10-16T16:36:28;4.85;;;2.08;;
15952;SDS011;8075;47.766;8.846;2022-10-16T16:38:54;3.85;;;1.90;;
15952;SDS011;8075;47.766;8.846;2022-10-16T16:41:21;6.88;;;2.10;;
15952;SDS011;8075;47.766;8.846;2022-10-16T16:43:47;11.60;;;1.90;;
15952;SDS011;8075;47.766;8.846;2022-10-16T16:46:14;8.85;;;1.98;;
15952;SDS011;8075;47.766;8.846;2022-10-16T16:48:40;8.13;;;1.90;;
15952;SDS011;8075;47.766;8.846;2022-10-16T16:51:11;9.43;;;1.77;;
15952;SDS011;8075;47.766;8.846;2022-10-16T16:53:44;8.73;;;2.22;;
15952;SDS011;8075;47.766;8.846;2022-10-16T16:56:10;4.47;;;1.87;;
15952;SDS011;8075;47.766;8.846;2022-10-16T16:58:36;5.28;;;1.83;;
15952;SDS011;8075;47.766;8.846;2022-10-16T17:01:02;6.93;;;1.95;;
15952;SDS011;8075;47.766;8.846;2022-10-16T17:03:29;10.25;;;2.42;;
15952;SDS011;8075;47.766;8.846;2022-10-16T17:05:56;5.47;;;1.88;;
15952;SDS011;8075;47.766;8.846;2022-10-16T17:08:22;8.80;;;1.80;;
15952;SDS011;8075;47.766;8.846;2022-10-16T17:10:48;3.70;;;1.70;;
15952;SDS011;8075;47.766;8.846;2022-10-16T17:13:17;9.83;;;2.23;;
15952;SDS011;8075;47.766;8.846;2022-10-16T17:15:47;8.15;;;1.88;;
15952;SDS011;8075;47.766;8.846;2022-10-16T17:18:13;5.35;;;1.60;;
15952;SDS011;8075;47.766;8.846;2022-10-16T17:20:39;8.00;;;1.50;;
15952;SDS011;8075;47.766;8.846;2022-10-16T17:23:05;10.25;;;2.05;;
15952;SDS011;8075;47.766;8.846;2022-10-16T17:25:31;5.80;;;1.60;;
15952;SDS011;8075;47.766;8.846;2022-10-16T17:27:57;4.57;;;1.70;;
15952;SDS011;8075;47.766;8.846;2022-10-16T17:30:24;4.87;;;1.80;;
15952;SDS011;8075;47.766;8.846;2022-10-16T17:32:50;6.95;;;1.90;;
15952;SDS011;8075;47.766;8.846;2022-10-16T17:35:16;5.50;;;1.70;;
15952;SDS011;8075;47.766;8.846;2022-10-16T17:37:42;7.53;;;1.90;;
15952;SDS011;8075;47.766;8.846;2022-10-16T17:40:08;6.75;;;1.92;;
15952;SDS011;8075;47.766;8.846;2022-10-16T17:42:34;6.68;;;1.83;;
15952;SDS011;8075;47.766;8.846;2022-10-16T17:45:00;4.60;;;2.05;;
15952;SDS011;8075;47.766;8.846;2022-10-16T17:47:27;4.90;;;1.80;;
15952;SDS011;8075;47.766;8.846;2022-10-16T17:49:53;5.78;;;2.20;;
15952;SDS011;8075;47.766;8.846;2022-10-16T17:52:19;3.20;;;1.90;;
15952;SDS011;8075;47.766;8.846;2022-10-16T17:54:45;6.03;;;2.30;;
15952;SDS011;8075;47.766;8.846;2022-10-16T17:57:11;4.87;;;2.60;;
15952;SDS011;8075;47.766;8.846;2022-10-16T17:59:37;3.92;;;2.38;;
15952;SDS011;8075;47.766;8.846;2022-10-16T18:02:03;7.03;;;2.50;;
15952;SDS011;8075;47.766;8.846;2022-10-16T18:04:29;4.78;;;2.83;;
15952;SDS011;8075;47.766;8.846;2022-10-16T18:06:55;5.15;;;2.78;;
15952;SDS011;8075;47.766;8.846;2022-10-16T18:09:21;5.20;;;3.28;;
15952;SDS011;8075;47.766;8.846;2022-10-16T18:11:48;5.50;;;3.70;;
15952;SDS011;8075;47.766;8.846;2022-10-16T18:14:19;7.85;;;3.40;;
15952;SDS011;8075;47.766;8.846;2022-10-16T18:16:45;5.05;;;3.75;;
15952;SDS011;8075;47.766;8.846;2022-10-16T18:19:11;5.00;;;4.20;;
15952;SDS011;8075;47.766;8.846;2022-10-16T18:21:37;4.93;;;3.97;;
15952;SDS011;8075;47.766;8.846;2022-10-16T18:24:03;6.25;;;3.80;;
15952;SDS011;8075;47.766;8.846;2022-10-16T18:26:29;4.68;;;3.42;;
15952;SDS011;8075;47.766;8.846;2022-10-16T18:28:56;11.07;;;3.67;;
15952;SDS011;8075;47.766;8.846;2022-10-16T18:31:22;5.43;;;3.50;;
15952;SDS011;8075;47.766;8.846;2022-10-16T18:33:50;10.80;;;2.80;;
15952;SDS011;8075;47.766;8.846;2022-10-16T18:36:17;5.32;;;2.20;;
15952;SDS011;8075;47.766;8.846;2022-10-16T18:38:43;4.70;;;2.60;;
15952;SDS011;8075;47.766;8.846;2022-10-16T18:41:12;6.68;;;2.53;;
15952;SDS011;8075;47.766;8.846;2022-10-16T18:43:38;4.50;;;2.70;;
15952;SDS011;8075;47.766;8.846;2022-10-16T18:46:15;5.00;;;2.95;;
15952;SDS011;8075;47.766;8.846;2022-10-16T18:48:41;3.72;;;2.83;;
15952;SDS011;8075;47.766;8.846;2022-10-16T18:51:14;5.93;;;2.80;;
15952;SDS011;8075;47.766;8.846;2022-10-16T18:53:41;4.38;;;2.80;;
15952;SDS011;8075;47.766;8.846;2022-10-16T18:56:07;4.47;;;2.65;;
15952;SDS011;8075;47.766;8.846;2022-10-16T18:58:34;4.30;;;2.58;;
15952;SDS011;8075;47.766;8.846;2022-10-16T19:01:04;5.57;;;2.63;;
15952;SDS011;8075;47.766;8.846;2022-10-16T19:03:30;5.40;;;3.58;;
15952;SDS011;8075;47.766;8.846;2022-10-16T19:06:04;5.32;;;3.92;;
15952;SDS011;8075;47.766;8.846;2022-10-16T19:08:32;6.40;;;4.28;;
15952;SDS011;8075;47.766;8.846;2022-10-16T19:11:02;5.85;;;4.53;;
15952;SDS011;8075;47.766;8.846;2022-10-16T19:13:28;7.47;;;4.10;;
15952;SDS011;8075;47.766;8.846;2022-10-16T19:15:54;8.40;;;3.60;;
15952;SDS011;8075;47.766;8.846;2022-10-16T19:18:20;5.43;;;3.60;;
15952;SDS011;8075;47.766;8.846;2022-10-16T19:20:46;6.90;;;3.78;;
15952;SDS011;8075;47.766;8.846;2022-10-16T19:23:12;7.75;;;3.80;;
15952;SDS011;8075;47.766;8.846;2022-10-16T19:25:38;3.73;;;3.30;;
15952;SDS011;8075;47.766;8.846;2022-10-16T19:28:05;3.60;;;3.00;;
15952;SDS011;8075;47.766;8.846;2022-10-16T19:30:38;5.80;;;3.60;;
15952;SDS011;8075;47.766;8.846;2022-10-16T19:33:05;4.85;;;3.47;;
15952;SDS011;8075;47.766;8.846;2022-10-16T19:35:31;6.18;;;4.20;;
15952;SDS011;8075;47.766;8.846;2022-10-16T19:37:58;7.88;;;3.53;;
15952;SDS011;8075;47.766;8.846;2022-10-16T19:40:24;6.10;;;4.03;;
15952;SDS011;8075;47.766;8.846;2022-10-16T19:42:50;9.27;;;6.65;;
15952;SDS011;8075;47.766;8.846;2022-10-16T19:45:17;5.10;;;4.53;;
15952;SDS011;8075;47.766;8.846;2022-10-16T19:47:43;9.18;;;7.78;;
15952;SDS011;8075;47.766;8.846;2022-10-16T19:50:09;9.80;;;8.70;;
15952;SDS011;8075;47.766;8.846;2022-10-16T19:52:36;9.13;;;6.80;;
15952;SDS011;8075;47.766;8.846;2022-10-16T19:55:03;6.13;;;5.53;;
15952;SDS011;8075;47.766;8.846;2022-10-16T19:57:31;6.55;;;4.53;;
15952;SDS011;8075;47.766;8.846;2022-10-16T19:59:57;7.00;;;4.00;;
15952;SDS011;8075;47.766;8.846;2022-10-16T20:02:23;5.95;;;3.63;;
15952;SDS011;8075;47.766;8.846;2022-10-16T20:04:49;6.63;;;3.42;;
15952;SDS011;8075;47.766;8.846;2022-10-16T20:07:15;5.68;;;3.33;;
15952;SDS011;8075;47.766;8.846;2022-10-16T20:09:42;3.47;;;3.17;;
15952;SDS011;8075;47.766;8.846;2022-10-16T20:12:08;3.80;;;3.35;;
15952;SDS011;8075;47.766;8.846;2022-10-16T20:14:34;4.10;;;2.90;;
15952;SDS011;8075;47.766;8.846;2022-10-16T20:17:00;4.33;;;3.73;;
15952;SDS011;8075;47.766;8.846;2022-10-16T20:19:26;6.13;;;3.40;;
15952;SDS011;8075;47.766;8.846;2022-10-16T20:21:52;6.20;;;3.55;;
15952;SDS011;8075;47.766;8.846;2022-10-16T20:24:18;4.60;;;3.90;;
15952;SDS011;8075;47.766;8.846;2022-10-16T20:26:44;4.88;;;3.58;;
15952;SDS011;8075;47.766;8.846;2022-10-16T20:29:10;4.28;;;3.80;;
15952;SDS011;8075;47.766;8.846;2022-10-16T20:31:36;4.68;;;3.67;;
15952;SDS011;8075;47.766;8.846;2022-10-16T20:34:03;5.93;;;4.90;;
15952;SDS011;8075;47.766;8.846;2022-10-16T20:36:30;5.40;;;4.53;;
15952;SDS011;8075;47.766;8.846;2022-10-16T20:38:57;5.32;;;4.80;;
15952;SDS011;8075;47.766;8.846;2022-10-16T20:41:23;6.32;;;4.88;;
15952;SDS011;8075;47.766;8.846;2022-10-16T20:43:50;4.70;;;4.30;;
15952;SDS011;8075;47.766;8.846;2022-10-16T20:46:17;8.70;;;4.28;;
15952;SDS011;8075;47.766;8.846;2022-10-16T20:48:44;14.10;;;4.30;;